Logo AVAMET
Benvolgut visitant, si us plau, ingressa Recuperar contrasenya

Inforatge Ador

Dades diàries. Acumulats / Últims 30 dies disponibles

Data Temperatura (°C) Humitat rel. (%) Pressió rel. (hPa) Vent (km/h) Precipitació
Mínima Mitjana Màxima Amplitud
tèrmica
Mínima Mitjana Màxima Mínima Mitjana Màxima Predom. Mitjana Ràfega
màxima
Total
(mm)
Índex-n
Mínima Mitjana Màxima Mínima Mitjana Màxima n
0 a 1
P0 max
mm 5'
Dades mensuals acumulades fins l'últim dia disponible
01/2020 3,8 7,1 12,7 10,6 11,4 15,2 18,6 14,8 36 78 98 1.014 1.028 1.036   5,1 88,5 194,0
Dades anuals acumulades fins l'últim dia disponible
2020 3,8 7,1 12,7 10,6 11,4 15,2 18,6 14,8 36 78 98 1.014 1.028 1.036   5,1 88,5 194,0
Últims 30 dies disponibles
24-01-2020 8,3     10,6     13,3 5,0 85 92 95 1.023 1.024 1.026 WNW 0,8 11,3 0,0
23-01-2020 5,8     9,3     12,8 7,0 79 89 95 1.021 1.023 1.025 ENE 1,0 14,5 0,0
22-01-2020 7,9     10,1     12,4 4,5 81 90 95 1.019 1.021 1.022 W 6,0 27,4 3,4
21-01-2020 7,5     10,8     14,8 7,3 79 91 98 1.014 1.017 1.021 WNW 7,1 51,5 43,4 0,46 5,90
20-01-2020 5,7     8,2     11,4 5,7 95 96 98 1.019 1.021 1.024 NNE 21,9 88,5 71,4 0,59 2,80
19-01-2020 6,9     9,7     14,0 7,1 67 84 96 1.017 1.020 1.024 NNE 14,0 88,5 66,6 0,53 10,10
18-01-2020 10,0     13,6     17,9 7,9 49 63 74 1.022 1.030 1.035 WNW 3,4 25,7 0,0
17-01-2020 12,7     15,0     18,3 5,6 44 52 61 1.030 1.031 1.035 W 8,5 48,3 0,0
16-01-2020 9,9     13,7     16,8 6,9 59 67 83 1.029 1.030 1.032 W 6,6 27,4 0,0
15-01-2020 9,4     13,1     18,6 9,2 46 59 68 1.026 1.028 1.030 W 8,9 29,0 0,0
14-01-2020 8,6     11,2     16,6 8,0 38 58 80 1.023 1.025 1.026 W 10,0 32,2 0,0
13-01-2020 3,8     10,3     18,1 14,3 36 59 83 1.024 1.028 1.032 W 4,3 27,4 0,0
12-01-2020 4,9     8,6     14,7 9,8 47 74 91 1.031 1.032 1.033 W 1,3 19,3 0,0
11-01-2020 6,4     9,8     14,9 8,5 61 79 90 1.031 1.033 1.035 W 3,4 24,1 0,0
10-01-2020 8,6     11,3     14,3 5,7 57 76 95 1.025 1.028 1.031 W 9,2 49,9 8,6 0,37 0,80
09-01-2020 7,2     10,4     15,4 8,2 68 84 93 1.026 1.030 1.033 WSW 1,9 24,1 0,0
08-01-2020 5,8     10,1     15,4 9,6 68 83 92 1.030 1.032 1.034 NE 1,4 20,9 0,2
07-01-2020 5,5     9,5     15,5 10,0 64 85 94 1.031 1.033 1.035 E 0,6 16,1 0,0
06-01-2020 7,5     10,8     15,1 7,6 67 82 94 1.030 1.032 1.033 W 4,7 29,0 0,0
05-01-2020 6,2     10,2     17,5 11,3 48 77 87 1.030 1.031 1.034 SSE 0,8 16,1 0,0
04-01-2020 6,2     10,1     15,6 9,4 57 80 92 1.034 1.035 1.036 W 1,8 22,5 0,0
03-01-2020 4,4     9,2     14,3 9,9 66 87 94 1.032 1.033 1.036 ENE 2,1 24,1 0,2
02-01-2020 5,2     8,6     13,9 8,7 75 90 95 1.033 1.034 1.036 WNW 1,3 12,9 0,2
01-01-2020 5,6     9,3     14,1 8,5 73 85 93 1.033 1.034 1.036 ENE 0,8 14,5 0,0
31-12-2019 5,4     9,1     13,8 8,4 73 87 94 1.034 1.035 1.037 S 0,7 12,9 0,2
30-12-2019 7,7     10,8     13,9 6,2 70 84 92 1.034 1.035 1.037 W 2,3 27,4 0,0
29-12-2019 8,2     10,4     14,3 6,1 70 85 94 1.033 1.034 1.037 W 3,9 24,1 0,0
28-12-2019 5,8     10,6     14,9 9,1 73 85 93 1.031 1.033 1.035 ENE 1,6 16,1 0,0
27-12-2019 8,1     12,4     18,4 10,3 56 79 92 1.030 1.031 1.033 ENE 0,3 9,7 0,0
26-12-2019 11,9     17,7     23,2 11,3 33 49 81 1.024 1.027 1.032 W 9,5 32,2 0,0
Últims 13 mesos disponibles
12/2019 5,4 11,1 19,6 14,1 12,3 17,9 25,4 20,0 48 71 92 1.005 1.021 1.035 W 6,5 72,4 221,0
11/2019 6,9 12,3 20,7 15,4 14,9 19,3 26,6 19,7 48 59 79 1.001 1.014 1.021 WNW 7,4 64,4 10,8
10/2019 11,8 16,6 20,2 20,4 15,8 24,8 32,8 21,0 42 69 86 1.011 1.019 1.024 W 4,8 49,9 53,4
09/2019 14,2 20,1 23,3 23,6 22,1 27,5 34,6 20,4 49 77 93 1.013 1.020 1.026 SSE 4,8 75,9 117,8
08/2019 18,8 22,4 26,4 26,8 27,2 31,7 39,3 20,5 44 71 82 1.013 1.019 1.023 SSE 5,6 46,7 42,8
07/2019 20,8 22,9 26,3 27,2 28,3 32,0 38,3 17,5 41 67 81 1.009 1.017 1.024 SSE 6,4 58,0 0,2
06/2019 12,6 18,1 21,9 23,0 20,9 28,3 35,7 23,1 37 64 81 1.011 1.018 1.024 SSE 5,8 59,6 0,0
05/2019 10,1 14,8 21,8 19,2 18,3 24,3 31,7 21,6 48 66 81 1.008 1.018 1.027 SSE 5,4 51,9 7,2
04/2019 9,3 12,1 15,8 15,7 13,7 19,9 29,3 20,0 37 67 94 1.003 1.016 1.027 SO 7,0 58,0 109,8
03/2019 6,6 9,8 15,9 14,5 13,3 19,2 27,7 21,1 36 61 92 1.013 1.025 1.032 SSE 4,4 58,0 71,4
02/2019 5,3 8,1 13,1 12,6 12,4 17,3 23,3 18,0 35 63 84 998 1.027 1.036 S 5,0 61,1 0,0
01/2019 2,6 7,6 13,4 11,7 11,7 16,3 21,1 18,5 41 57 80 1.005 1.021 1.033 SO 6,6 59,6 6,6
12/2018 5,4 9,8 13,9 13,7 13,8 18,5 24,3 18,9 51 67 91 1.011 1.027 1.033 SSO 5,7 48,3 24,4
Tots els anys disponibles
2019 2,6 14,7 26,4 18,8 11,7 23,3 39,3 36,7 35 66 94 998 1.019 1.036 SSE 5,8 75,9 641,0
Temperatura (°C)
Humitat relativa (%)
Velocitat del vent i ràfega màxima (km/h)
Direcció del vent (°)
Pressió (hPa)
Precipitació (mm)
Nota sobre les dades: s'avisa a l'usuari de la provisionalitat i no oficialitat d'aquestes dades
Logo AVAMET blanc
Web allotjada a Sollutia
Llicència de Creative CommonsLa web d'AVAMET i els seus continguts estan subjectes a una llicència de
Reconeixement - No Comercial - Compartir igual
Últimes estacions: Xixona - Els Ameradors (Soci), Agres - El Tossal (Soci), Xàbia - Bevenguts (MeteoXàbia), Llíria (Aj. Soci/Inforatge), Orihuela - Lo Capitán, Cox & Guardamar del Segura - horta (Meteorihuela), l'Alcúdia - Carriona & el Real de Gandia (Inforatge), Benicàssim - les Vil·les (Soci),  l'Alfàs del Pi - l'Albir (Soci), - - -